sensor_id;sensor_type;location;lat;lon;timestamp;P1;durP1;ratioP1;P2;durP2;ratioP2
11386;SDS011;5748;53.102;8.456;2023-05-07T00:00:02;5.80;;;5.20;;
11386;SDS011;5748;53.102;8.456;2023-05-07T00:02:38;7.30;;;6.60;;
11386;SDS011;5748;53.102;8.456;2023-05-07T00:05:06;6.90;;;6.20;;
11386;SDS011;5748;53.102;8.456;2023-05-07T00:07:35;5.93;;;5.33;;
11386;SDS011;5748;53.102;8.456;2023-05-07T00:10:02;7.43;;;6.30;;
11386;SDS011;5748;53.102;8.456;2023-05-07T00:15:18;7.20;;;6.50;;
11386;SDS011;5748;53.102;8.456;2023-05-07T00:17:45;7.57;;;6.77;;
11386;SDS011;5748;53.102;8.456;2023-05-07T00:20:12;7.33;;;6.17;;
11386;SDS011;5748;53.102;8.456;2023-05-07T00:22:41;5.47;;;4.97;;
11386;SDS011;5748;53.102;8.456;2023-05-07T00:25:19;6.10;;;5.50;;
11386;SDS011;5748;53.102;8.456;2023-05-07T00:27:45;5.90;;;5.30;;
11386;SDS011;5748;53.102;8.456;2023-05-07T00:30:13;5.40;;;4.90;;
11386;SDS011;5748;53.102;8.456;2023-05-07T00:32:40;6.83;;;6.13;;
11386;SDS011;5748;53.102;8.456;2023-05-07T00:35:07;6.33;;;5.73;;
11386;SDS011;5748;53.102;8.456;2023-05-07T00:37:35;6.63;;;6.03;;
11386;SDS011;5748;53.102;8.456;2023-05-07T00:40:04;6.30;;;5.70;;
11386;SDS011;5748;53.102;8.456;2023-05-07T00:42:34;6.30;;;5.70;;
11386;SDS011;5748;53.102;8.456;2023-05-07T00:45:01;5.80;;;5.20;;
11386;SDS011;5748;53.102;8.456;2023-05-07T00:47:29;5.60;;;5.10;;
11386;SDS011;5748;53.102;8.456;2023-05-07T00:49:57;6.30;;;5.70;;
11386;SDS011;5748;53.102;8.456;2023-05-07T00:52:25;6.10;;;5.50;;
11386;SDS011;5748;53.102;8.456;2023-05-07T00:54:52;5.33;;;4.83;;
11386;SDS011;5748;53.102;8.456;2023-05-07T00:57:39;5.23;;;4.73;;
11386;SDS011;5748;53.102;8.456;2023-05-07T01:00:08;5.10;;;4.70;;
11386;SDS011;5748;53.102;8.456;2023-05-07T01:02:37;6.07;;;5.47;;
11386;SDS011;5748;53.102;8.456;2023-05-07T01:05:05;6.70;;;6.10;;
11386;SDS011;5748;53.102;8.456;2023-05-07T01:07:35;6.73;;;6.13;;
11386;SDS011;5748;53.102;8.456;2023-05-07T01:10:11;6.60;;;6.00;;
11386;SDS011;5748;53.102;8.456;2023-05-07T01:12:40;7.00;;;6.30;;
11386;SDS011;5748;53.102;8.456;2023-05-07T01:15:09;6.27;;;5.70;;
11386;SDS011;5748;53.102;8.456;2023-05-07T01:17:37;5.30;;;4.80;;
11386;SDS011;5748;53.102;8.456;2023-05-07T01:20:07;6.10;;;5.50;;
11386;SDS011;5748;53.102;8.456;2023-05-07T01:22:38;6.40;;;5.80;;
11386;SDS011;5748;53.102;8.456;2023-05-07T01:25:06;6.17;;;5.57;;
11386;SDS011;5748;53.102;8.456;2023-05-07T01:30:34;7.17;;;6.47;;
11386;SDS011;5748;53.102;8.456;2023-05-07T01:33:06;6.50;;;5.90;;
11386;SDS011;5748;53.102;8.456;2023-05-07T01:35:37;7.07;;;6.37;;
11386;SDS011;5748;53.102;8.456;2023-05-07T01:38:09;5.83;;;5.30;;
11386;SDS011;5748;53.102;8.456;2023-05-07T01:40:37;6.10;;;5.47;;
11386;SDS011;5748;53.102;8.456;2023-05-07T01:43:04;6.30;;;5.70;;
11386;SDS011;5748;53.102;8.456;2023-05-07T01:45:32;6.90;;;6.20;;
11386;SDS011;5748;53.102;8.456;2023-05-07T01:48:03;6.93;;;6.33;;
11386;SDS011;5748;53.102;8.456;2023-05-07T01:50:33;6.50;;;5.90;;
11386;SDS011;5748;53.102;8.456;2023-05-07T01:53:02;7.13;;;6.43;;
11386;SDS011;5748;53.102;8.456;2023-05-07T01:55:37;7.73;;;6.57;;
11386;SDS011;5748;53.102;8.456;2023-05-07T01:58:05;7.60;;;6.90;;
11386;SDS011;5748;53.102;8.456;2023-05-07T02:00:32;7.30;;;6.60;;
11386;SDS011;5748;53.102;8.456;2023-05-07T02:02:59;7.40;;;6.70;;
11386;SDS011;5748;53.102;8.456;2023-05-07T02:05:26;7.60;;;6.90;;
11386;SDS011;5748;53.102;8.456;2023-05-07T02:07:53;6.80;;;6.20;;
11386;SDS011;5748;53.102;8.456;2023-05-07T02:10:20;6.63;;;5.90;;
11386;SDS011;5748;53.102;8.456;2023-05-07T02:12:52;6.20;;;5.60;;
11386;SDS011;5748;53.102;8.456;2023-05-07T02:15:19;6.27;;;5.67;;
11386;SDS011;5748;53.102;8.456;2023-05-07T02:17:59;6.33;;;5.73;;
11386;SDS011;5748;53.102;8.456;2023-05-07T02:20:29;6.40;;;5.80;;
11386;SDS011;5748;53.102;8.456;2023-05-07T02:22:56;7.03;;;6.27;;
11386;SDS011;5748;53.102;8.456;2023-05-07T02:25:23;5.90;;;5.30;;
11386;SDS011;5748;53.102;8.456;2023-05-07T02:27:51;6.43;;;5.83;;
11386;SDS011;5748;53.102;8.456;2023-05-07T02:30:18;7.10;;;6.40;;
11386;SDS011;5748;53.102;8.456;2023-05-07T02:32:53;6.57;;;5.97;;
11386;SDS011;5748;53.102;8.456;2023-05-07T02:35:20;6.93;;;6.23;;
11386;SDS011;5748;53.102;8.456;2023-05-07T02:37:47;7.30;;;6.60;;
11386;SDS011;5748;53.102;8.456;2023-05-07T02:40:14;6.30;;;5.70;;
11386;SDS011;5748;53.102;8.456;2023-05-07T02:42:41;6.80;;;5.93;;
11386;SDS011;5748;53.102;8.456;2023-05-07T02:45:10;6.57;;;5.97;;
11386;SDS011;5748;53.102;8.456;2023-05-07T02:47:37;6.17;;;5.50;;
11386;SDS011;5748;53.102;8.456;2023-05-07T02:50:20;6.57;;;5.97;;
11386;SDS011;5748;53.102;8.456;2023-05-07T02:52:47;6.77;;;6.07;;
11386;SDS011;5748;53.102;8.456;2023-05-07T02:55:14;6.57;;;5.97;;
11386;SDS011;5748;53.102;8.456;2023-05-07T02:57:41;5.83;;;5.23;;
11386;SDS011;5748;53.102;8.456;2023-05-07T03:00:14;6.17;;;5.57;;
11386;SDS011;5748;53.102;8.456;2023-05-07T03:02:43;5.23;;;4.73;;
11386;SDS011;5748;53.102;8.456;2023-05-07T03:05:11;4.97;;;4.53;;
11386;SDS011;5748;53.102;8.456;2023-05-07T03:07:39;4.67;;;4.27;;
11386;SDS011;5748;53.102;8.456;2023-05-07T03:10:10;4.93;;;4.47;;
11386;SDS011;5748;53.102;8.456;2023-05-07T03:12:37;5.73;;;5.13;;
11386;SDS011;5748;53.102;8.456;2023-05-07T03:15:05;6.03;;;5.43;;
11386;SDS011;5748;53.102;8.456;2023-05-07T03:17:36;6.37;;;5.77;;
11386;SDS011;5748;53.102;8.456;2023-05-07T03:20:05;5.93;;;5.43;;
11386;SDS011;5748;53.102;8.456;2023-05-07T03:22:34;5.80;;;5.30;;
11386;SDS011;5748;53.102;8.456;2023-05-07T03:25:01;6.77;;;6.07;;
11386;SDS011;5748;53.102;8.456;2023-05-07T03:27:29;6.27;;;5.67;;
11386;SDS011;5748;53.102;8.456;2023-05-07T03:29:56;6.30;;;5.70;;
11386;SDS011;5748;53.102;8.456;2023-05-07T03:32:23;5.63;;;5.13;;
11386;SDS011;5748;53.102;8.456;2023-05-07T03:34:52;6.00;;;5.40;;
11386;SDS011;5748;53.102;8.456;2023-05-07T03:37:19;5.63;;;5.10;;
11386;SDS011;5748;53.102;8.456;2023-05-07T03:39:46;5.20;;;4.70;;
11386;SDS011;5748;53.102;8.456;2023-05-07T03:42:14;5.03;;;4.53;;
11386;SDS011;5748;53.102;8.456;2023-05-07T03:44:41;5.40;;;4.90;;
11386;SDS011;5748;53.102;8.456;2023-05-07T03:47:09;5.67;;;5.10;;
11386;SDS011;5748;53.102;8.456;2023-05-07T03:49:36;5.90;;;5.40;;
11386;SDS011;5748;53.102;8.456;2023-05-07T03:52:05;5.50;;;5.00;;
11386;SDS011;5748;53.102;8.456;2023-05-07T03:54:32;6.27;;;5.67;;
11386;SDS011;5748;53.102;8.456;2023-05-07T03:57:02;6.53;;;5.83;;
11386;SDS011;5748;53.102;8.456;2023-05-07T03:59:29;5.60;;;5.10;;
11386;SDS011;5748;53.102;8.456;2023-05-07T04:01:57;4.57;;;4.17;;
11386;SDS011;5748;53.102;8.456;2023-05-07T04:04:24;5.23;;;4.73;;
11386;SDS011;5748;53.102;8.456;2023-05-07T04:06:51;4.80;;;4.30;;
11386;SDS011;5748;53.102;8.456;2023-05-07T04:09:19;5.90;;;5.30;;
11386;SDS011;5748;53.102;8.456;2023-05-07T04:14:28;5.07;;;4.57;;
11386;SDS011;5748;53.102;8.456;2023-05-07T04:16:57;5.33;;;4.43;;
11386;SDS011;5748;53.102;8.456;2023-05-07T04:19:24;6.73;;;6.03;;
11386;SDS011;5748;53.102;8.456;2023-05-07T04:22:00;5.50;;;5.00;;
11386;SDS011;5748;53.102;8.456;2023-05-07T04:24:32;6.60;;;6.00;;
11386;SDS011;5748;53.102;8.456;2023-05-07T04:26:59;6.83;;;5.70;;
11386;SDS011;5748;53.102;8.456;2023-05-07T04:29:26;5.23;;;4.73;;
11386;SDS011;5748;53.102;8.456;2023-05-07T04:31:53;5.33;;;4.83;;
11386;SDS011;5748;53.102;8.456;2023-05-07T04:34:21;4.90;;;4.50;;
11386;SDS011;5748;53.102;8.456;2023-05-07T04:36:48;5.90;;;5.30;;
11386;SDS011;5748;53.102;8.456;2023-05-07T04:39:15;7.07;;;6.00;;
11386;SDS011;5748;53.102;8.456;2023-05-07T04:41:44;5.70;;;5.20;;
11386;SDS011;5748;53.102;8.456;2023-05-07T04:44:11;5.20;;;4.70;;
11386;SDS011;5748;53.102;8.456;2023-05-07T04:46:38;5.80;;;4.73;;
11386;SDS011;5748;53.102;8.456;2023-05-07T04:49:05;6.17;;;5.57;;
11386;SDS011;5748;53.102;8.456;2023-05-07T04:51:32;6.30;;;5.70;;
11386;SDS011;5748;53.102;8.456;2023-05-07T04:53:59;5.80;;;5.20;;
11386;SDS011;5748;53.102;8.456;2023-05-07T04:56:35;6.60;;;6.00;;
11386;SDS011;5748;53.102;8.456;2023-05-07T04:59:04;6.40;;;5.80;;
11386;SDS011;5748;53.102;8.456;2023-05-07T05:01:31;5.80;;;5.27;;
11386;SDS011;5748;53.102;8.456;2023-05-07T05:03:59;6.73;;;6.13;;
11386;SDS011;5748;53.102;8.456;2023-05-07T05:09:14;6.57;;;5.97;;
11386;SDS011;5748;53.102;8.456;2023-05-07T05:11:41;6.17;;;5.57;;
11386;SDS011;5748;53.102;8.456;2023-05-07T05:14:10;6.13;;;5.53;;
11386;SDS011;5748;53.102;8.456;2023-05-07T05:16:40;5.50;;;5.00;;
11386;SDS011;5748;53.102;8.456;2023-05-07T05:19:10;5.47;;;4.97;;
11386;SDS011;5748;53.102;8.456;2023-05-07T05:21:38;5.93;;;5.33;;
11386;SDS011;5748;53.102;8.456;2023-05-07T05:24:05;5.50;;;5.00;;
11386;SDS011;5748;53.102;8.456;2023-05-07T05:26:33;6.00;;;5.40;;
11386;SDS011;5748;53.102;8.456;2023-05-07T05:29:00;6.43;;;5.83;;
11386;SDS011;5748;53.102;8.456;2023-05-07T05:31:29;6.10;;;5.50;;
11386;SDS011;5748;53.102;8.456;2023-05-07T05:33:56;6.30;;;5.53;;
11386;SDS011;5748;53.102;8.456;2023-05-07T05:36:23;5.77;;;5.00;;
11386;SDS011;5748;53.102;8.456;2023-05-07T05:38:50;4.73;;;4.33;;
11386;SDS011;5748;53.102;8.456;2023-05-07T05:41:17;5.10;;;4.60;;
11386;SDS011;5748;53.102;8.456;2023-05-07T05:43:45;5.00;;;4.50;;
11386;SDS011;5748;53.102;8.456;2023-05-07T05:46:14;5.67;;;4.50;;
11386;SDS011;5748;53.102;8.456;2023-05-07T05:48:42;4.93;;;4.43;;
11386;SDS011;5748;53.102;8.456;2023-05-07T05:51:10;4.60;;;4.20;;
11386;SDS011;5748;53.102;8.456;2023-05-07T05:53:39;4.70;;;4.30;;
11386;SDS011;5748;53.102;8.456;2023-05-07T05:56:13;6.30;;;5.57;;
11386;SDS011;5748;53.102;8.456;2023-05-07T05:58:40;6.30;;;5.70;;
11386;SDS011;5748;53.102;8.456;2023-05-07T06:01:07;5.73;;;5.23;;
11386;SDS011;5748;53.102;8.456;2023-05-07T06:03:38;5.70;;;5.10;;
11386;SDS011;5748;53.102;8.456;2023-05-07T06:06:06;5.40;;;4.90;;
11386;SDS011;5748;53.102;8.456;2023-05-07T06:08:36;4.47;;;4.07;;
11386;SDS011;5748;53.102;8.456;2023-05-07T06:11:03;5.07;;;4.43;;
11386;SDS011;5748;53.102;8.456;2023-05-07T06:13:35;4.77;;;4.37;;
11386;SDS011;5748;53.102;8.456;2023-05-07T06:16:03;5.23;;;4.73;;
11386;SDS011;5748;53.102;8.456;2023-05-07T06:18:30;5.77;;;5.27;;
11386;SDS011;5748;53.102;8.456;2023-05-07T06:20:57;5.30;;;4.80;;
11386;SDS011;5748;53.102;8.456;2023-05-07T06:23:26;5.20;;;4.70;;
11386;SDS011;5748;53.102;8.456;2023-05-07T06:25:54;4.90;;;4.50;;
11386;SDS011;5748;53.102;8.456;2023-05-07T06:28:21;4.83;;;4.43;;
11386;SDS011;5748;53.102;8.456;2023-05-07T06:30:48;5.13;;;4.63;;
11386;SDS011;5748;53.102;8.456;2023-05-07T06:33:15;5.60;;;5.10;;
11386;SDS011;5748;53.102;8.456;2023-05-07T06:35:43;5.10;;;4.60;;
11386;SDS011;5748;53.102;8.456;2023-05-07T06:38:10;4.00;;;3.70;;
11386;SDS011;5748;53.102;8.456;2023-05-07T06:40:49;4.47;;;4.00;;
11386;SDS011;5748;53.102;8.456;2023-05-07T06:46:11;4.40;;;4.00;;
11386;SDS011;5748;53.102;8.456;2023-05-07T06:48:51;4.50;;;4.10;;
11386;SDS011;5748;53.102;8.456;2023-05-07T06:51:36;5.40;;;4.90;;
11386;SDS011;5748;53.102;8.456;2023-05-07T06:57:15;4.20;;;3.83;;
11386;SDS011;5748;53.102;8.456;2023-05-07T06:59:52;3.40;;;3.10;;
11386;SDS011;5748;53.102;8.456;2023-05-07T07:02:52;3.93;;;3.53;;
11386;SDS011;5748;53.102;8.456;2023-05-07T07:05:31;4.30;;;3.90;;
11386;SDS011;5748;53.102;8.456;2023-05-07T07:07:59;3.87;;;3.57;;
11386;SDS011;5748;53.102;8.456;2023-05-07T07:10:26;4.80;;;4.40;;
11386;SDS011;5748;53.102;8.456;2023-05-07T07:12:54;4.83;;;4.43;;
11386;SDS011;5748;53.102;8.456;2023-05-07T07:15:22;4.20;;;3.87;;
11386;SDS011;5748;53.102;8.456;2023-05-07T07:17:51;4.47;;;4.07;;
11386;SDS011;5748;53.102;8.456;2023-05-07T07:20:18;4.60;;;4.20;;
11386;SDS011;5748;53.102;8.456;2023-05-07T07:22:51;3.90;;;3.60;;
11386;SDS011;5748;53.102;8.456;2023-05-07T07:25:18;4.50;;;4.10;;
11386;SDS011;5748;53.102;8.456;2023-05-07T07:27:52;4.20;;;3.80;;
11386;SDS011;5748;53.102;8.456;2023-05-07T07:30:22;4.60;;;4.20;;
11386;SDS011;5748;53.102;8.456;2023-05-07T07:32:51;4.43;;;4.03;;
11386;SDS011;5748;53.102;8.456;2023-05-07T07:37:51;4.13;;;3.83;;
11386;SDS011;5748;53.102;8.456;2023-05-07T07:40:19;4.43;;;4.03;;
11386;SDS011;5748;53.102;8.456;2023-05-07T07:42:46;4.23;;;3.83;;
11386;SDS011;5748;53.102;8.456;2023-05-07T07:45:13;5.10;;;4.60;;
11386;SDS011;5748;53.102;8.456;2023-05-07T07:47:41;4.43;;;4.03;;
11386;SDS011;5748;53.102;8.456;2023-05-07T07:50:10;4.00;;;3.70;;
11386;SDS011;5748;53.102;8.456;2023-05-07T07:52:39;4.30;;;3.90;;
11386;SDS011;5748;53.102;8.456;2023-05-07T07:55:22;3.83;;;3.53;;
11386;SDS011;5748;53.102;8.456;2023-05-07T07:57:51;3.93;;;3.63;;
11386;SDS011;5748;53.102;8.456;2023-05-07T08:00:18;4.40;;;4.00;;
11386;SDS011;5748;53.102;8.456;2023-05-07T08:02:48;4.20;;;3.90;;
11386;SDS011;5748;53.102;8.456;2023-05-07T08:07:52;3.43;;;3.13;;
11386;SDS011;5748;53.102;8.456;2023-05-07T08:10:20;3.60;;;3.30;;
11386;SDS011;5748;53.102;8.456;2023-05-07T08:12:47;3.73;;;3.43;;
11386;SDS011;5748;53.102;8.456;2023-05-07T08:15:15;3.93;;;3.63;;
11386;SDS011;5748;53.102;8.456;2023-05-07T08:17:58;4.67;;;4.27;;
11386;SDS011;5748;53.102;8.456;2023-05-07T08:20:37;3.90;;;3.60;;
11386;SDS011;5748;53.102;8.456;2023-05-07T08:23:13;3.90;;;3.60;;
11386;SDS011;5748;53.102;8.456;2023-05-07T08:25:50;3.57;;;3.27;;
11386;SDS011;5748;53.102;8.456;2023-05-07T08:28:19;4.00;;;3.70;;
11386;SDS011;5748;53.102;8.456;2023-05-07T08:30:49;3.80;;;3.50;;
11386;SDS011;5748;53.102;8.456;2023-05-07T08:33:17;4.40;;;4.00;;
11386;SDS011;5748;53.102;8.456;2023-05-07T08:35:47;4.27;;;3.90;;
11386;SDS011;5748;53.102;8.456;2023-05-07T08:38:14;4.50;;;4.10;;
11386;SDS011;5748;53.102;8.456;2023-05-07T08:40:42;5.27;;;4.63;;
11386;SDS011;5748;53.102;8.456;2023-05-07T08:43:13;4.40;;;4.00;;
11386;SDS011;5748;53.102;8.456;2023-05-07T08:45:42;4.10;;;3.77;;
11386;SDS011;5748;53.102;8.456;2023-05-07T08:48:14;4.07;;;3.77;;
11386;SDS011;5748;53.102;8.456;2023-05-07T08:50:45;4.50;;;4.10;;
11386;SDS011;5748;53.102;8.456;2023-05-07T08:53:12;4.60;;;4.20;;
11386;SDS011;5748;53.102;8.456;2023-05-07T08:55:42;4.90;;;4.50;;
11386;SDS011;5748;53.102;8.456;2023-05-07T08:58:09;4.63;;;4.23;;
11386;SDS011;5748;53.102;8.456;2023-05-07T09:00:46;4.53;;;4.13;;
11386;SDS011;5748;53.102;8.456;2023-05-07T09:03:13;3.87;;;3.57;;
11386;SDS011;5748;53.102;8.456;2023-05-07T09:05:41;4.23;;;3.90;;
11386;SDS011;5748;53.102;8.456;2023-05-07T09:08:13;4.40;;;4.00;;
11386;SDS011;5748;53.102;8.456;2023-05-07T09:10:41;4.70;;;4.30;;
11386;SDS011;5748;53.102;8.456;2023-05-07T09:13:10;3.73;;;3.43;;
11386;SDS011;5748;53.102;8.456;2023-05-07T09:15:40;4.33;;;3.93;;
11386;SDS011;5748;53.102;8.456;2023-05-07T09:18:09;3.60;;;3.30;;
11386;SDS011;5748;53.102;8.456;2023-05-07T09:20:48;4.30;;;3.90;;
11386;SDS011;5748;53.102;8.456;2023-05-07T09:23:27;4.20;;;3.90;;
11386;SDS011;5748;53.102;8.456;2023-05-07T09:26:01;4.33;;;3.93;;
11386;SDS011;5748;53.102;8.456;2023-05-07T09:28:30;4.43;;;4.03;;
11386;SDS011;5748;53.102;8.456;2023-05-07T09:31:04;5.30;;;4.80;;
11386;SDS011;5748;53.102;8.456;2023-05-07T09:33:35;4.60;;;4.20;;
11386;SDS011;5748;53.102;8.456;2023-05-07T09:36:11;4.73;;;4.33;;
11386;SDS011;5748;53.102;8.456;2023-05-07T09:41:45;4.50;;;4.10;;
11386;SDS011;5748;53.102;8.456;2023-05-07T09:44:31;4.40;;;4.00;;
11386;SDS011;5748;53.102;8.456;2023-05-07T09:47:07;4.43;;;4.13;;
11386;SDS011;5748;53.102;8.456;2023-05-07T09:52:48;4.10;;;3.80;;
11386;SDS011;5748;53.102;8.456;2023-05-07T09:55:42;4.60;;;4.20;;
11386;SDS011;5748;53.102;8.456;2023-05-07T09:58:11;3.57;;;3.27;;
11386;SDS011;5748;53.102;8.456;2023-05-07T10:00:49;4.10;;;3.80;;
11386;SDS011;5748;53.102;8.456;2023-05-07T10:03:19;4.57;;;4.20;;
11386;SDS011;5748;53.102;8.456;2023-05-07T10:05:48;4.33;;;4.00;;
11386;SDS011;5748;53.102;8.456;2023-05-07T10:08:16;3.53;;;3.23;;
11386;SDS011;5748;53.102;8.456;2023-05-07T10:10:53;4.00;;;3.70;;
11386;SDS011;5748;53.102;8.456;2023-05-07T10:13:20;3.60;;;3.30;;
11386;SDS011;5748;53.102;8.456;2023-05-07T10:15:56;3.80;;;3.50;;
11386;SDS011;5748;53.102;8.456;2023-05-07T10:18:24;3.90;;;3.60;;
11386;SDS011;5748;53.102;8.456;2023-05-07T10:21:08;3.83;;;3.50;;
11386;SDS011;5748;53.102;8.456;2023-05-07T10:23:47;3.75;;;3.45;;
11386;SDS011;5748;53.102;8.456;2023-05-07T10:26:20;3.30;;;3.10;;
11386;SDS011;5748;53.102;8.456;2023-05-07T10:28:58;3.90;;;3.60;;
11386;SDS011;5748;53.102;8.456;2023-05-07T10:31:55;4.20;;;3.90;;
11386;SDS011;5748;53.102;8.456;2023-05-07T10:34:26;3.85;;;3.55;;
11386;SDS011;5748;53.102;8.456;2023-05-07T10:40:06;3.60;;;3.30;;
11386;SDS011;5748;53.102;8.456;2023-05-07T10:45:30;3.60;;;3.30;;
11386;SDS011;5748;53.102;8.456;2023-05-07T10:48:09;3.97;;;3.67;;
11386;SDS011;5748;53.102;8.456;2023-05-07T10:50:41;3.77;;;3.47;;
11386;SDS011;5748;53.102;8.456;2023-05-07T10:53:20;3.70;;;3.40;;
11386;SDS011;5748;53.102;8.456;2023-05-07T11:02:08;3.93;;;3.63;;
11386;SDS011;5748;53.102;8.456;2023-05-07T11:04:36;3.80;;;3.50;;
11386;SDS011;5748;53.102;8.456;2023-05-07T11:10:02;4.07;;;3.77;;
11386;SDS011;5748;53.102;8.456;2023-05-07T11:12:46;3.90;;;3.60;;
11386;SDS011;5748;53.102;8.456;2023-05-07T11:20:58;4.30;;;3.90;;
11386;SDS011;5748;53.102;8.456;2023-05-07T11:26:49;4.43;;;4.13;;
11386;SDS011;5748;53.102;8.456;2023-05-07T11:29:24;4.20;;;3.90;;
11386;SDS011;5748;53.102;8.456;2023-05-07T11:35:02;4.27;;;3.97;;
11386;SDS011;5748;53.102;8.456;2023-05-07T11:37:48;4.23;;;3.93;;
11386;SDS011;5748;53.102;8.456;2023-05-07T11:40:17;4.73;;;4.33;;
11386;SDS011;5748;53.102;8.456;2023-05-07T11:43:09;5.60;;;4.47;;
11386;SDS011;5748;53.102;8.456;2023-05-07T11:49:03;3.70;;;3.40;;
11386;SDS011;5748;53.102;8.456;2023-05-07T11:51:45;4.10;;;3.80;;
11386;SDS011;5748;53.102;8.456;2023-05-07T11:54:18;4.37;;;4.00;;
11386;SDS011;5748;53.102;8.456;2023-05-07T11:57:48;4.20;;;3.80;;
11386;SDS011;5748;53.102;8.456;2023-05-07T12:00:19;3.90;;;3.60;;
11386;SDS011;5748;53.102;8.456;2023-05-07T12:03:17;3.97;;;3.67;;
11386;SDS011;5748;53.102;8.456;2023-05-07T12:05:46;3.90;;;3.60;;
11386;SDS011;5748;53.102;8.456;2023-05-07T12:08:24;4.00;;;3.60;;
11386;SDS011;5748;53.102;8.456;2023-05-07T12:10:59;4.13;;;3.83;;
11386;SDS011;5748;53.102;8.456;2023-05-07T12:13:37;5.00;;;4.60;;
11386;SDS011;5748;53.102;8.456;2023-05-07T12:16:05;4.17;;;3.80;;
11386;SDS011;5748;53.102;8.456;2023-05-07T12:18:34;3.67;;;3.37;;
11386;SDS011;5748;53.102;8.456;2023-05-07T12:21:03;4.20;;;3.80;;
11386;SDS011;5748;53.102;8.456;2023-05-07T12:23:33;4.17;;;3.83;;
11386;SDS011;5748;53.102;8.456;2023-05-07T12:26:06;5.18;;;4.78;;
11386;SDS011;5748;53.102;8.456;2023-05-07T12:28:36;4.60;;;4.22;;
11386;SDS011;5748;53.102;8.456;2023-05-07T12:31:04;3.85;;;3.55;;
11386;SDS011;5748;53.102;8.456;2023-05-07T12:33:32;4.00;;;3.60;;
11386;SDS011;5748;53.102;8.456;2023-05-07T12:36:04;3.88;;;3.58;;
11386;SDS011;5748;53.102;8.456;2023-05-07T12:38:36;3.47;;;3.20;;
11386;SDS011;5748;53.102;8.456;2023-05-07T12:41:05;3.72;;;3.42;;
11386;SDS011;5748;53.102;8.456;2023-05-07T12:43:34;3.70;;;3.40;;
11386;SDS011;5748;53.102;8.456;2023-05-07T12:46:03;3.30;;;3.10;;
11386;SDS011;5748;53.102;8.456;2023-05-07T12:48:32;3.65;;;3.35;;
11386;SDS011;5748;53.102;8.456;2023-05-07T12:51:00;3.30;;;3.10;;
11386;SDS011;5748;53.102;8.456;2023-05-07T12:53:29;3.30;;;3.10;;
11386;SDS011;5748;53.102;8.456;2023-05-07T12:55:57;2.95;;;2.75;;
11386;SDS011;5748;53.102;8.456;2023-05-07T12:58:26;3.70;;;3.40;;
11386;SDS011;5748;53.102;8.456;2023-05-07T13:00:55;3.33;;;3.10;;
11386;SDS011;5748;53.102;8.456;2023-05-07T13:03:25;3.00;;;2.80;;
11386;SDS011;5748;53.102;8.456;2023-05-07T13:05:54;3.35;;;3.15;;
11386;SDS011;5748;53.102;8.456;2023-05-07T13:08:24;3.10;;;2.85;;
11386;SDS011;5748;53.102;8.456;2023-05-07T13:10:57;3.45;;;3.15;;
11386;SDS011;5748;53.102;8.456;2023-05-07T13:13:28;3.35;;;3.15;;
11386;SDS011;5748;53.102;8.456;2023-05-07T13:15:55;3.65;;;3.35;;
11386;SDS011;5748;53.102;8.456;2023-05-07T13:18:24;3.22;;;2.92;;
11386;SDS011;5748;53.102;8.456;2023-05-07T13:20:51;3.22;;;3.00;;
11386;SDS011;5748;53.102;8.456;2023-05-07T13:23:18;2.90;;;2.70;;
11386;SDS011;5748;53.102;8.456;2023-05-07T13:25:47;3.42;;;3.13;;
11386;SDS011;5748;53.102;8.456;2023-05-07T13:28:15;3.00;;;2.80;;
11386;SDS011;5748;53.102;8.456;2023-05-07T13:30:42;3.30;;;3.10;;
11386;SDS011;5748;53.102;8.456;2023-05-07T13:33:10;2.90;;;2.70;;
11386;SDS011;5748;53.102;8.456;2023-05-07T13:35:37;2.78;;;2.58;;
11386;SDS011;5748;53.102;8.456;2023-05-07T13:38:04;3.03;;;2.83;;
11386;SDS011;5748;53.102;8.456;2023-05-07T13:40:31;2.83;;;2.63;;
11386;SDS011;5748;53.102;8.456;2023-05-07T13:42:59;3.00;;;2.80;;
11386;SDS011;5748;53.102;8.456;2023-05-07T13:45:27;3.22;;;3.03;;
11386;SDS011;5748;53.102;8.456;2023-05-07T13:47:55;2.97;;;2.78;;
11386;SDS011;5748;53.102;8.456;2023-05-07T13:53:21;3.10;;;2.90;;
11386;SDS011;5748;53.102;8.456;2023-05-07T13:55:48;2.90;;;2.70;;
11386;SDS011;5748;53.102;8.456;2023-05-07T13:58:16;2.75;;;2.55;;
11386;SDS011;5748;53.102;8.456;2023-05-07T14:00:43;3.30;;;3.03;;
11386;SDS011;5748;53.102;8.456;2023-05-07T14:03:19;3.10;;;2.90;;
11386;SDS011;5748;53.102;8.456;2023-05-07T14:08:39;3.10;;;2.90;;
11386;SDS011;5748;53.102;8.456;2023-05-07T14:11:06;2.92;;;2.72;;
11386;SDS011;5748;53.102;8.456;2023-05-07T14:13:35;3.22;;;2.92;;
11386;SDS011;5748;53.102;8.456;2023-05-07T14:16:03;2.70;;;2.50;;
11386;SDS011;5748;53.102;8.456;2023-05-07T14:18:31;3.03;;;2.83;;
11386;SDS011;5748;53.102;8.456;2023-05-07T14:21:00;3.15;;;2.95;;
11386;SDS011;5748;53.102;8.456;2023-05-07T14:23:27;3.40;;;2.80;;
11386;SDS011;5748;53.102;8.456;2023-05-07T14:25:54;2.20;;;2.10;;
11386;SDS011;5748;53.102;8.456;2023-05-07T14:28:22;2.70;;;2.50;;
11386;SDS011;5748;53.102;8.456;2023-05-07T14:31:08;3.00;;;2.80;;
11386;SDS011;5748;53.102;8.456;2023-05-07T14:33:34;3.00;;;2.80;;
11386;SDS011;5748;53.102;8.456;2023-05-07T14:36:02;3.10;;;2.90;;
11386;SDS011;5748;53.102;8.456;2023-05-07T14:38:29;2.72;;;2.53;;
11386;SDS011;5748;53.102;8.456;2023-05-07T14:40:58;2.75;;;2.55;;
11386;SDS011;5748;53.102;8.456;2023-05-07T14:43:25;2.67;;;2.47;;
11386;SDS011;5748;53.102;8.456;2023-05-07T14:45:52;2.70;;;2.50;;
11386;SDS011;5748;53.102;8.456;2023-05-07T14:48:20;3.00;;;2.80;;
11386;SDS011;5748;53.102;8.456;2023-05-07T14:50:47;2.40;;;2.20;;
11386;SDS011;5748;53.102;8.456;2023-05-07T14:53:15;3.00;;;2.70;;
11386;SDS011;5748;53.102;8.456;2023-05-07T14:55:42;2.80;;;2.60;;
11386;SDS011;5748;53.102;8.456;2023-05-07T14:58:10;2.70;;;2.50;;
11386;SDS011;5748;53.102;8.456;2023-05-07T15:00:37;2.53;;;2.33;;
11386;SDS011;5748;53.102;8.456;2023-05-07T15:03:05;2.60;;;2.40;;
11386;SDS011;5748;53.102;8.456;2023-05-07T15:05:35;2.53;;;2.33;;
11386;SDS011;5748;53.102;8.456;2023-05-07T15:08:03;3.40;;;3.10;;
11386;SDS011;5748;53.102;8.456;2023-05-07T15:10:31;3.20;;;3.00;;
11386;SDS011;5748;53.102;8.456;2023-05-07T15:13:05;2.50;;;2.30;;
11386;SDS011;5748;53.102;8.456;2023-05-07T15:15:33;2.55;;;2.35;;
11386;SDS011;5748;53.102;8.456;2023-05-07T15:18:00;2.50;;;2.30;;
11386;SDS011;5748;53.102;8.456;2023-05-07T15:20:27;2.22;;;2.13;;
11386;SDS011;5748;53.102;8.456;2023-05-07T15:22:56;2.60;;;2.40;;
11386;SDS011;5748;53.102;8.456;2023-05-07T15:25:23;2.90;;;2.70;;
11386;SDS011;5748;53.102;8.456;2023-05-07T15:28:02;2.80;;;2.60;;
11386;SDS011;5748;53.102;8.456;2023-05-07T15:30:30;2.87;;;2.67;;
11386;SDS011;5748;53.102;8.456;2023-05-07T15:36:22;2.50;;;2.30;;
11386;SDS011;5748;53.102;8.456;2023-05-07T15:38:51;2.50;;;2.30;;
11386;SDS011;5748;53.102;8.456;2023-05-07T15:41:24;2.87;;;2.67;;
11386;SDS011;5748;53.102;8.456;2023-05-07T15:44:00;3.17;;;2.93;;
11386;SDS011;5748;53.102;8.456;2023-05-07T15:46:32;2.80;;;2.60;;
11386;SDS011;5748;53.102;8.456;2023-05-07T15:49:17;2.80;;;2.60;;
11386;SDS011;5748;53.102;8.456;2023-05-07T15:54:18;3.10;;;2.80;;
11386;SDS011;5748;53.102;8.456;2023-05-07T15:56:51;2.90;;;2.70;;
11386;SDS011;5748;53.102;8.456;2023-05-07T15:59:21;2.60;;;2.40;;
11386;SDS011;5748;53.102;8.456;2023-05-07T16:01:49;2.77;;;2.57;;
11386;SDS011;5748;53.102;8.456;2023-05-07T16:04:16;2.70;;;2.50;;
11386;SDS011;5748;53.102;8.456;2023-05-07T16:06:43;2.67;;;2.40;;
11386;SDS011;5748;53.102;8.456;2023-05-07T16:09:11;2.60;;;2.40;;
11386;SDS011;5748;53.102;8.456;2023-05-07T16:11:39;2.60;;;2.40;;
11386;SDS011;5748;53.102;8.456;2023-05-07T16:14:07;2.60;;;2.40;;
11386;SDS011;5748;53.102;8.456;2023-05-07T16:16:35;2.73;;;2.53;;
11386;SDS011;5748;53.102;8.456;2023-05-07T16:19:05;3.17;;;2.30;;
11386;SDS011;5748;53.102;8.456;2023-05-07T16:21:32;2.30;;;2.17;;
11386;SDS011;5748;53.102;8.456;2023-05-07T16:24:00;2.50;;;2.30;;
11386;SDS011;5748;53.102;8.456;2023-05-07T16:26:28;2.27;;;2.07;;
11386;SDS011;5748;53.102;8.456;2023-05-07T16:29:04;2.70;;;2.50;;